createdAt,value
2018-12-08T00:00:42.171Z,27.97
2018-12-08T00:03:10.735Z,13.63
2018-12-08T00:05:38.957Z,22.43
2018-12-08T00:08:07.150Z,20.73
2018-12-08T00:10:35.432Z,13.00
2018-12-08T00:13:03.719Z,24.00
2018-12-08T00:15:31.882Z,22.97
2018-12-08T00:18:00.060Z,19.03
2018-12-08T00:20:28.389Z,16.77
2018-12-08T00:22:56.559Z,11.93
2018-12-08T00:25:24.716Z,18.50
2018-12-08T00:27:52.910Z,20.90
2018-12-08T00:31:32.368Z,12.10
2018-12-08T00:34:00.772Z,16.17
2018-12-08T00:36:28.917Z,18.47
2018-12-08T00:38:57.163Z,12.73
2018-12-08T00:41:25.341Z,7.93
2018-12-08T00:43:53.518Z,9.60
2018-12-08T00:46:21.700Z,14.93
2018-12-08T00:48:50.043Z,15.13
2018-12-08T00:51:18.181Z,14.50
2018-12-08T00:53:46.398Z,11.20
2018-12-08T00:56:14.571Z,21.93
2018-12-08T00:58:42.737Z,9.90
2018-12-08T01:01:11.034Z,6.87
2018-12-08T01:03:39.283Z,7.70
2018-12-08T01:06:07.485Z,18.20
2018-12-08T01:08:35.789Z,14.70
2018-12-08T01:11:04.064Z,5.50
2018-12-08T01:13:32.312Z,9.67
2018-12-08T01:16:00.626Z,9.47
2018-12-08T01:18:28.817Z,10.90
2018-12-08T01:20:57.031Z,12.30
2018-12-08T01:23:25.217Z,6.93
2018-12-08T01:25:53.491Z,8.73
2018-12-08T01:28:21.791Z,7.83
2018-12-08T01:30:49.955Z,15.83
2018-12-08T01:33:18.109Z,12.50
2018-12-08T01:35:46.294Z,11.77
2018-12-08T01:38:14.469Z,8.00
2018-12-08T01:40:42.819Z,19.47
2018-12-08T01:43:11.040Z,9.03
2018-12-08T01:45:39.372Z,10.20
2018-12-08T01:48:07.544Z,23.17
2018-12-08T01:50:35.798Z,16.73
2018-12-08T01:53:04.004Z,11.03
2018-12-08T01:55:32.265Z,9.47
2018-12-08T01:58:00.574Z,22.93
2018-12-08T02:00:28.757Z,4.00
2018-12-08T02:02:56.917Z,5.50
2018-12-08T02:05:25.121Z,13.53
2018-12-08T02:07:53.278Z,12.87
2018-12-08T02:10:21.441Z,8.40
2018-12-08T02:12:49.617Z,4.07
2018-12-08T02:15:17.766Z,8.03
2018-12-08T02:17:45.924Z,15.70
2018-12-08T02:20:14.115Z,4.83
2018-12-08T02:22:42.287Z,5.87
2018-12-08T02:25:10.657Z,21.20
2018-12-08T02:27:38.930Z,14.87
2018-12-08T02:30:07.573Z,4.37
2018-12-08T02:32:35.728Z,2.60
2018-12-08T02:35:04.115Z,11.60
2018-12-08T02:37:32.304Z,9.73
2018-12-08T02:40:00.563Z,8.37
2018-12-08T02:42:28.783Z,10.13
2018-12-08T02:44:56.939Z,5.87
2018-12-08T02:47:25.146Z,2.97
2018-12-08T02:49:53.482Z,15.53
2018-12-08T02:52:22.478Z,12.03
2018-12-08T02:54:50.655Z,3.80
2018-12-08T02:57:18.838Z,10.50
2018-12-08T02:59:47.012Z,10.90
2018-12-08T03:02:15.260Z,11.40
2018-12-08T03:04:43.621Z,7.73
2018-12-08T03:07:11.774Z,5.23
2018-12-08T03:09:39.963Z,7.37
2018-12-08T03:12:08.122Z,10.77
2018-12-08T03:14:36.287Z,10.03
2018-12-08T03:17:04.950Z,28.10
2018-12-08T03:19:33.283Z,12.90
2018-12-08T03:22:01.447Z,2.97
2018-12-08T03:24:29.710Z,15.30
2018-12-08T03:26:58.008Z,4.90
2018-12-08T03:29:26.151Z,9.07
2018-12-08T03:31:54.823Z,8.60
2018-12-08T03:34:23.283Z,15.40
2018-12-08T03:36:51.444Z,6.00
2018-12-08T03:39:19.743Z,14.67
2018-12-08T03:41:47.936Z,16.53
2018-12-08T03:44:16.079Z,5.23
2018-12-08T03:46:44.263Z,20.93
2018-12-08T03:49:12.546Z,15.47
2018-12-08T03:51:40.796Z,22.80
2018-12-08T03:54:09.055Z,15.00
2018-12-08T03:56:37.232Z,19.07
2018-12-08T03:59:05.496Z,10.40
2018-12-08T04:01:33.636Z,7.50
2018-12-08T04:04:01.816Z,7.97
2018-12-08T04:06:30.138Z,8.33
2018-12-08T04:08:58.387Z,27.70
2018-12-08T04:11:26.583Z,9.93
2018-12-08T04:13:54.743Z,7.73
2018-12-08T04:16:22.906Z,16.13
2018-12-08T04:18:51.098Z,15.50
2018-12-08T04:21:19.279Z,4.20
2018-12-08T04:23:47.538Z,9.17
2018-12-08T04:26:15.746Z,8.23
2018-12-08T04:28:43.915Z,9.53
2018-12-08T04:31:12.080Z,7.30
2018-12-08T04:33:40.263Z,13.47
2018-12-08T04:36:08.447Z,7.47
2018-12-08T04:38:36.673Z,6.10
2018-12-08T04:41:05.400Z,3.83
2018-12-08T04:43:33.634Z,6.13
2018-12-08T04:46:01.798Z,9.93
2018-12-08T04:48:29.995Z,10.47
2018-12-08T04:50:58.253Z,5.43
2018-12-08T04:53:26.505Z,2.67
2018-12-08T04:55:54.689Z,9.80
2018-12-08T04:58:22.887Z,5.50
2018-12-08T05:00:51.211Z,5.47
2018-12-08T05:03:19.355Z,4.53
2018-12-08T05:05:47.583Z,6.40
2018-12-08T05:08:15.799Z,3.90
2018-12-08T05:10:44.145Z,16.30
2018-12-08T05:13:12.330Z,9.60
2018-12-08T05:15:40.491Z,9.07
2018-12-08T05:18:08.704Z,10.83
2018-12-08T05:20:36.907Z,4.40
2018-12-08T05:23:05.170Z,4.13
2018-12-08T05:25:33.555Z,12.60
2018-12-08T05:28:01.724Z,3.63
2018-12-08T05:30:29.976Z,7.90
2018-12-08T05:32:58.137Z,2.57
2018-12-08T05:35:26.287Z,6.10
2018-12-08T05:37:54.536Z,2.40
2018-12-08T05:40:22.720Z,11.87
2018-12-08T05:42:50.898Z,7.77
2018-12-08T05:45:19.139Z,11.33
2018-12-08T05:47:47.323Z,7.13
2018-12-08T05:50:15.487Z,7.63
2018-12-08T05:52:43.847Z,2.60
2018-12-08T05:55:12.167Z,4.17
2018-12-08T05:57:40.420Z,11.63
2018-12-08T06:00:09.380Z,5.37
2018-12-08T06:02:37.565Z,9.07
2018-12-08T06:05:06.962Z,3.87
2018-12-08T06:07:35.274Z,5.03
2018-12-08T06:10:03.772Z,14.63
2018-12-08T06:12:31.994Z,9.77
2018-12-08T06:15:01.027Z,4.90
2018-12-08T06:17:29.228Z,7.87
2018-12-08T06:19:57.398Z,5.50
2018-12-08T06:22:25.860Z,5.23
2018-12-08T06:24:54.006Z,9.47
2018-12-08T06:28:04.577Z,6.73
2018-12-08T06:30:32.735Z,3.00
2018-12-08T06:33:00.916Z,13.20
2018-12-08T06:35:29.466Z,4.63
2018-12-08T06:37:57.655Z,5.43
2018-12-08T06:40:29.191Z,3.87
2018-12-08T06:42:56.407Z,9.53
2018-12-08T06:45:24.651Z,4.93
2018-12-08T06:47:52.884Z,8.73
2018-12-08T06:50:21.089Z,4.73
2018-12-08T06:52:49.256Z,5.70
2018-12-08T06:55:17.455Z,9.13
2018-12-08T06:57:45.671Z,3.83
2018-12-08T07:00:14.271Z,2.30
2018-12-08T07:02:42.551Z,3.73
2018-12-08T07:05:10.772Z,1.43
2018-12-08T07:07:39.044Z,3.83
2018-12-08T07:10:07.562Z,6.90
2018-12-08T07:12:35.723Z,9.23
2018-12-08T07:15:04.287Z,4.03
2018-12-08T07:17:32.482Z,6.33
2018-12-08T07:20:00.743Z,5.83
2018-12-08T07:22:29.035Z,4.47
2018-12-08T07:24:57.239Z,3.10
2018-12-08T07:27:25.417Z,2.60
2018-12-08T07:29:53.569Z,3.00
2018-12-08T07:32:21.755Z,13.23
2018-12-08T07:34:49.958Z,3.47
2018-12-08T07:37:18.255Z,5.33
2018-12-08T07:39:46.425Z,3.70
2018-12-08T07:42:15.877Z,5.30
2018-12-08T07:44:44.119Z,6.53
2018-12-08T07:47:12.427Z,4.30
2018-12-08T07:49:40.734Z,5.23
2018-12-08T07:52:08.925Z,3.13
2018-12-08T07:54:37.123Z,6.50
2018-12-08T07:57:06.289Z,5.27
2018-12-08T07:59:34.503Z,4.20
2018-12-08T08:02:02.667Z,3.80
2018-12-08T08:04:30.864Z,8.07
2018-12-08T08:06:59.297Z,6.70
2018-12-08T08:09:27.577Z,5.53
2018-12-08T08:11:56.186Z,1.40
2018-12-08T08:14:24.491Z,4.97
2018-12-08T08:16:52.782Z,7.03
2018-12-08T08:19:21.427Z,10.43
2018-12-08T08:21:50.929Z,4.60
2018-12-08T08:24:19.231Z,4.60
2018-12-08T08:26:47.527Z,5.93
2018-12-08T08:29:15.927Z,17.80
2018-12-08T08:31:44.274Z,7.10
2018-12-08T08:34:12.791Z,5.80
2018-12-08T08:36:41.119Z,2.60
2018-12-08T08:39:11.100Z,9.27
2018-12-08T08:41:39.579Z,8.60
2018-12-08T08:44:08.804Z,1.80
2018-12-08T08:46:37.442Z,3.00
2018-12-08T08:49:05.645Z,17.60
2018-12-08T08:51:33.967Z,5.00
2018-12-08T08:54:02.191Z,7.00
2018-12-08T08:56:30.489Z,8.90
2018-12-08T08:58:59.017Z,5.33
2018-12-08T09:01:27.437Z,11.17
2018-12-08T09:03:56.367Z,7.23
2018-12-08T09:06:25.350Z,6.10
2018-12-08T09:08:53.561Z,2.80
2018-12-08T09:11:21.742Z,7.10
2018-12-08T09:13:49.944Z,6.37
2018-12-08T09:16:18.220Z,4.97
2018-12-08T09:18:46.521Z,12.60
2018-12-08T09:21:14.710Z,12.80
2018-12-08T09:23:43.735Z,14.53
2018-12-08T09:26:12.061Z,5.70
2018-12-08T09:28:40.263Z,5.50
2018-12-08T09:31:08.347Z,6.93
2018-12-08T09:33:36.506Z,7.73
2018-12-08T09:36:04.718Z,5.50
2018-12-08T09:38:33.444Z,6.63
2018-12-08T09:41:01.453Z,7.40
2018-12-08T09:43:29.784Z,3.07
2018-12-08T09:45:58.365Z,17.93
2018-12-08T09:48:26.778Z,8.50
2018-12-08T09:50:55.126Z,29.97
2018-12-08T09:53:23.389Z,11.27
2018-12-08T09:55:51.676Z,9.77
2018-12-08T09:58:20.150Z,12.67
2018-12-08T10:00:48.415Z,16.03
2018-12-08T10:03:16.800Z,13.17
2018-12-08T10:05:45.050Z,14.13
2018-12-08T10:08:13.280Z,22.53
2018-12-08T10:10:41.507Z,12.33
2018-12-08T10:13:09.697Z,13.97
2018-12-08T10:15:37.966Z,11.77
2018-12-08T10:18:07.607Z,23.27
2018-12-08T10:20:35.783Z,24.50
2018-12-08T10:23:04.059Z,17.47
2018-12-08T10:25:32.429Z,15.77
2018-12-08T10:28:00.610Z,17.63
2018-12-08T10:30:28.777Z,21.20
2018-12-08T10:32:57.486Z,23.83
2018-12-08T10:35:25.774Z,19.17
2018-12-08T10:37:53.991Z,21.03
2018-12-08T10:40:22.282Z,28.33
2018-12-08T10:42:50.549Z,14.30
2018-12-08T10:45:18.851Z,13.40
2018-12-08T10:47:47.051Z,13.37
2018-12-08T10:50:15.241Z,16.13
2018-12-08T10:52:43.654Z,13.90
2018-12-08T10:55:12.594Z,26.57
2018-12-08T10:57:40.925Z,10.63
2018-12-08T11:00:14.447Z,24.73
2018-12-08T11:02:47.132Z,24.07
2018-12-08T11:05:15.295Z,15.17
2018-12-08T11:07:43.662Z,16.30
2018-12-08T11:10:11.920Z,23.47
2018-12-08T11:12:40.188Z,21.87
2018-12-08T11:15:09.136Z,26.37
2018-12-08T11:17:37.316Z,16.03
2018-12-08T11:20:06.182Z,21.77
2018-12-08T11:22:34.962Z,14.10
2018-12-08T11:25:03.225Z,20.03
2018-12-08T11:27:31.606Z,11.57
2018-12-08T11:29:59.920Z,12.93
2018-12-08T11:32:28.178Z,10.80
2018-12-08T11:34:56.433Z,18.90
2018-12-08T11:37:24.718Z,10.80
2018-12-08T11:39:52.998Z,15.90
2018-12-08T11:42:21.592Z,12.90
2018-12-08T11:44:50.063Z,15.90
2018-12-08T11:47:18.567Z,17.57
2018-12-08T11:49:46.835Z,5.30
2018-12-08T11:52:15.121Z,16.30
2018-12-08T11:54:43.582Z,9.03
2018-12-08T11:57:11.939Z,9.70
2018-12-08T11:59:40.171Z,16.10
2018-12-08T12:02:16.345Z,15.30
2018-12-08T12:04:38.767Z,21.63
2018-12-08T12:07:06.994Z,19.30
2018-12-08T12:09:35.238Z,14.80
2018-12-08T12:12:03.545Z,17.90
2018-12-08T12:14:43.714Z,16.00
2018-12-08T12:17:11.889Z,15.33
2018-12-08T12:19:40.065Z,9.33
2018-12-08T12:22:08.313Z,8.47
2018-12-08T12:24:36.486Z,25.07
2018-12-08T12:27:05.124Z,17.13
2018-12-08T12:29:33.367Z,17.03
2018-12-08T12:32:01.757Z,27.73
2018-12-08T12:34:30.084Z,23.60
2018-12-08T12:36:58.366Z,26.90
2018-12-08T12:39:26.671Z,16.73
2018-12-08T12:41:54.942Z,20.30
2018-12-08T12:44:23.213Z,16.63
2018-12-08T12:46:51.395Z,8.93
2018-12-08T12:49:19.692Z,29.60
2018-12-08T12:51:48.063Z,15.57
2018-12-08T12:54:16.273Z,22.97
2018-12-08T12:56:44.484Z,18.23
2018-12-08T12:59:12.703Z,19.30
2018-12-08T13:01:41.667Z,21.17
2018-12-08T13:04:09.831Z,9.50
2018-12-08T13:06:38.136Z,21.77
2018-12-08T13:09:07.542Z,19.27
2018-12-08T13:11:35.824Z,14.37
2018-12-08T13:14:04.173Z,20.17
2018-12-08T13:16:32.507Z,40.97
2018-12-08T13:19:01.032Z,12.23
2018-12-08T13:21:29.246Z,22.53
2018-12-08T13:23:57.626Z,19.77
2018-12-08T13:26:26.403Z,24.20
2018-12-08T13:28:54.652Z,8.70
2018-12-08T13:31:22.817Z,20.80
2018-12-08T13:33:52.751Z,23.57
2018-12-08T13:36:21.071Z,16.47
2018-12-08T13:38:49.368Z,14.43
2018-12-08T13:41:17.727Z,17.77
2018-12-08T13:43:53.861Z,17.20
2018-12-08T13:46:22.242Z,12.40
2018-12-08T13:48:50.536Z,27.20
2018-12-08T13:51:19.316Z,19.57
2018-12-08T13:53:47.542Z,10.60
2018-12-08T13:56:15.726Z,13.50
2018-12-08T13:58:43.970Z,17.33
2018-12-08T14:01:12.235Z,22.70
2018-12-08T14:03:40.418Z,11.40
2018-12-08T14:06:09.093Z,14.00
2018-12-08T14:08:37.368Z,11.27
2018-12-08T14:11:05.657Z,19.33
2018-12-08T14:13:33.915Z,9.90
2018-12-08T14:16:02.107Z,13.43
2018-12-08T14:18:30.386Z,24.93
2018-12-08T14:20:58.930Z,20.87
2018-12-08T14:23:27.280Z,19.53
2018-12-08T14:25:55.619Z,18.50
2018-12-08T14:28:23.859Z,26.97
2018-12-08T14:30:52.208Z,31.60
2018-12-08T14:33:20.395Z,17.17
2018-12-08T14:35:48.592Z,11.50
2018-12-08T14:38:16.745Z,22.60
2018-12-08T14:40:45.015Z,19.60
2018-12-08T14:43:13.450Z,24.43
2018-12-08T14:45:41.666Z,20.13
2018-12-08T14:48:09.918Z,21.37
2018-12-08T14:50:38.150Z,28.67
2018-12-08T14:53:06.575Z,30.47
2018-12-08T14:55:34.789Z,34.13
2018-12-08T14:58:03.905Z,20.60
2018-12-08T15:00:32.336Z,22.53
2018-12-08T15:03:00.610Z,19.00
2018-12-08T15:05:29.585Z,25.07
2018-12-08T15:07:57.767Z,24.70
2018-12-08T15:10:26.011Z,29.63
2018-12-08T15:12:54.209Z,27.73
2018-12-08T15:15:22.615Z,34.67
2018-12-08T15:17:51.552Z,52.33
2018-12-08T15:20:21.133Z,34.13
2018-12-08T15:22:49.312Z,27.43
2018-12-08T15:25:17.513Z,29.57
2018-12-08T15:27:45.748Z,25.60
2018-12-08T15:30:14.029Z,34.90
2018-12-08T15:32:42.205Z,20.37
2018-12-08T15:35:12.340Z,27.73
2018-12-08T15:37:41.197Z,19.60
2018-12-08T15:40:10.228Z,42.73
2018-12-08T15:42:38.946Z,29.80
2018-12-08T15:45:09.431Z,34.57
2018-12-08T15:47:37.742Z,29.80
2018-12-08T15:50:06.580Z,37.40
2018-12-08T15:52:34.947Z,27.03
2018-12-08T15:55:03.982Z,28.33
2018-12-08T15:57:32.169Z,30.43
2018-12-08T16:00:00.342Z,18.73
2018-12-08T16:02:28.675Z,34.20
2018-12-08T16:04:56.900Z,25.70
2018-12-08T16:07:25.538Z,30.77
2018-12-08T16:09:53.942Z,30.80
2018-12-08T16:12:22.684Z,30.30
2018-12-08T16:14:51.015Z,32.07
2018-12-08T16:17:19.318Z,21.27
2018-12-08T16:19:47.580Z,26.17
2018-12-08T16:22:16.247Z,34.07
2018-12-08T16:24:44.663Z,23.37
2018-12-08T16:27:12.839Z,29.30
2018-12-08T16:29:41.116Z,20.27
2018-12-08T16:32:09.302Z,20.83
2018-12-08T16:34:37.617Z,24.43
2018-12-08T16:37:05.855Z,20.77
2018-12-08T16:39:34.126Z,17.43
2018-12-08T16:42:02.530Z,23.63
2018-12-08T16:44:30.722Z,17.57
2018-12-08T16:46:58.927Z,22.60
2018-12-08T16:49:27.155Z,33.10
2018-12-08T16:51:55.547Z,26.07
2018-12-08T16:54:23.839Z,14.80
2018-12-08T16:56:52.245Z,15.43
2018-12-08T16:59:20.406Z,12.00
2018-12-08T17:01:52.269Z,17.13
2018-12-08T17:04:21.638Z,15.37
2018-12-08T17:06:49.964Z,17.97
2018-12-08T17:09:18.135Z,7.40
2018-12-08T17:11:46.354Z,28.23
2018-12-08T17:14:14.541Z,14.00
2018-12-08T17:16:43.316Z,9.00
2018-12-08T17:19:11.477Z,19.60
2018-12-08T17:21:39.819Z,6.23
2018-12-08T17:24:08.224Z,3.60
2018-12-08T17:26:36.474Z,8.20
2018-12-08T17:29:06.089Z,3.73
2018-12-08T17:31:34.677Z,17.63
2018-12-08T17:34:02.996Z,8.20
2018-12-08T17:36:31.346Z,3.07
2018-12-08T17:38:59.531Z,10.83
2018-12-08T17:41:27.694Z,8.63
2018-12-08T17:43:56.155Z,7.03
2018-12-08T17:46:24.325Z,5.67
2018-12-08T17:48:52.513Z,4.17
2018-12-08T17:51:20.774Z,6.10
2018-12-08T17:53:49.062Z,4.67
2018-12-08T17:56:17.694Z,3.25
2018-12-08T17:58:45.876Z,3.00
2018-12-08T18:01:14.054Z,5.23
2018-12-08T18:03:42.258Z,7.70
2018-12-08T18:06:10.498Z,1.50
2018-12-08T18:08:38.679Z,6.77
2018-12-08T18:11:07.059Z,3.73
2018-12-08T18:13:35.336Z,8.10
2018-12-08T18:16:03.824Z,3.10
2018-12-08T18:18:32.762Z,1.70
2018-12-08T18:21:01.165Z,3.60
2018-12-08T18:23:30.181Z,3.57
2018-12-08T18:25:58.638Z,9.73
2018-12-08T18:28:26.908Z,5.07
2018-12-08T18:30:55.068Z,2.00
2018-12-08T18:33:23.500Z,3.83
2018-12-08T18:35:51.686Z,1.23
2018-12-08T18:38:20.551Z,3.37
2018-12-08T18:40:48.758Z,8.93
2018-12-08T18:43:16.970Z,1.20
2018-12-08T18:45:45.593Z,2.90
2018-12-08T18:48:13.826Z,12.03
2018-12-08T18:50:42.077Z,2.33
2018-12-08T18:53:10.399Z,3.03
2018-12-08T18:55:38.563Z,2.63
2018-12-08T18:58:06.725Z,2.20
2018-12-08T19:00:35.167Z,3.17
2018-12-08T19:03:03.504Z,3.60
2018-12-08T19:05:31.863Z,2.30
2018-12-08T19:08:01.120Z,7.50
2018-12-08T19:10:29.279Z,2.13
2018-12-08T19:12:57.438Z,3.47
2018-12-08T19:15:25.918Z,8.57
2018-12-08T19:17:54.284Z,4.73
2018-12-08T19:20:22.550Z,1.83
2018-12-08T19:22:51.221Z,1.13
2018-12-08T19:25:19.438Z,2.83
2018-12-08T19:27:47.623Z,2.70
2018-12-08T19:30:15.948Z,1.10
2018-12-08T19:32:44.456Z,10.73
2018-12-08T19:35:12.670Z,3.13
2018-12-08T19:37:40.848Z,1.87
2018-12-08T19:40:09.459Z,5.57
2018-12-08T19:42:39.489Z,6.70
2018-12-08T19:45:08.327Z,2.03
2018-12-08T19:47:36.776Z,2.47
2018-12-08T19:50:05.303Z,8.73
2018-12-08T19:52:33.654Z,2.70
2018-12-08T19:55:02.562Z,7.20
2018-12-08T19:57:30.719Z,4.13
2018-12-08T19:59:59.438Z,1.07
2018-12-08T20:02:27.653Z,2.77
2018-12-08T20:04:55.815Z,2.40
2018-12-08T20:07:24.121Z,1.80
2018-12-08T20:09:52.290Z,2.23
2018-12-08T20:12:20.463Z,1.27
2018-12-08T20:14:48.880Z,2.27
2018-12-08T20:17:17.162Z,3.50
2018-12-08T20:19:45.598Z,3.07
2018-12-08T20:22:14.081Z,9.20
2018-12-08T20:24:42.611Z,2.90
2018-12-08T20:27:10.816Z,7.63
2018-12-08T20:29:39.016Z,2.47
2018-12-08T20:32:07.469Z,11.83
2018-12-08T20:34:35.686Z,9.03
2018-12-08T20:37:04.020Z,7.33
2018-12-08T20:39:32.351Z,1.77
2018-12-08T20:42:00.547Z,5.60
2018-12-08T20:44:28.786Z,4.80
2018-12-08T20:46:57.113Z,1.80
2018-12-08T20:49:25.354Z,0.87
2018-12-08T20:51:53.874Z,0.77
2018-12-08T20:54:22.175Z,3.00
2018-12-08T20:56:50.421Z,1.80
2018-12-08T20:59:18.554Z,2.20
2018-12-08T21:01:47.063Z,5.63
2018-12-08T21:04:15.457Z,1.03
2018-12-08T21:06:43.683Z,0.70
2018-12-08T21:09:11.910Z,1.40
2018-12-08T21:11:40.420Z,1.93
2018-12-08T21:14:08.751Z,2.33
2018-12-08T21:16:37.095Z,1.30
2018-12-08T21:19:05.404Z,2.00
2018-12-08T21:21:33.733Z,2.73
2018-12-08T21:24:02.611Z,1.63
2018-12-08T21:26:30.955Z,1.53
2018-12-08T21:28:59.356Z,2.30
2018-12-08T21:31:27.674Z,5.50
2018-12-08T21:33:55.847Z,9.30
2018-12-08T21:36:24.203Z,8.30
2018-12-08T21:38:52.463Z,1.33
2018-12-08T21:41:20.689Z,2.20
2018-12-08T21:43:48.859Z,2.13
2018-12-08T21:46:17.130Z,6.63
2018-12-08T21:48:45.354Z,5.53
2018-12-08T21:51:13.576Z,1.10
2018-12-08T21:53:41.813Z,5.77
2018-12-08T21:56:10.057Z,2.75
2018-12-08T21:58:38.285Z,1.90
2018-12-08T22:01:06.669Z,4.20
2018-12-08T22:03:34.807Z,1.80
2018-12-08T22:06:03.062Z,5.93
2018-12-08T22:08:31.278Z,4.83
2018-12-08T22:10:59.450Z,7.63
2018-12-08T22:13:27.625Z,3.23
2018-12-08T22:15:55.794Z,7.20
2018-12-08T22:18:23.965Z,6.07
2018-12-08T22:20:52.168Z,6.23
2018-12-08T22:23:20.330Z,6.27
2018-12-08T22:25:48.498Z,7.30
2018-12-08T22:28:16.807Z,12.17
2018-12-08T22:30:45.071Z,7.73
2018-12-08T22:33:13.246Z,13.50
2018-12-08T22:35:41.536Z,10.27
2018-12-08T22:38:09.699Z,9.90
2018-12-08T22:40:37.995Z,12.10
2018-12-08T22:43:06.155Z,5.40
2018-12-08T22:45:34.412Z,6.20
2018-12-08T22:48:03.190Z,10.83
2018-12-08T22:50:31.391Z,5.73
2018-12-08T22:52:59.553Z,7.47
2018-12-08T22:55:27.770Z,11.03
2018-12-08T22:57:55.972Z,11.50
2018-12-08T23:00:37.845Z,6.97
2018-12-08T23:03:06.111Z,20.40
2018-12-08T23:05:34.286Z,8.47
2018-12-08T23:08:03.082Z,8.30
2018-12-08T23:10:31.495Z,12.20
2018-12-08T23:12:59.772Z,9.63
2018-12-08T23:15:28.030Z,25.43
2018-12-08T23:17:56.303Z,17.40
2018-12-08T23:20:25.233Z,28.97
2018-12-08T23:22:53.638Z,16.53
2018-12-08T23:25:21.996Z,31.17
2018-12-08T23:27:50.159Z,31.63
2018-12-08T23:30:18.428Z,24.83
2018-12-08T23:32:46.760Z,20.90
2018-12-08T23:35:15.022Z,19.13
2018-12-08T23:37:43.186Z,19.37
2018-12-08T23:40:11.486Z,16.53
2018-12-08T23:42:39.864Z,26.07
2018-12-08T23:45:08.274Z,17.67
2018-12-08T23:47:36.452Z,14.57
2018-12-08T23:50:06.006Z,32.43
2018-12-08T23:52:34.320Z,21.37
2018-12-08T23:55:02.694Z,19.67
2018-12-08T23:57:30.858Z,21.83
2018-12-08T23:59:59.047Z,5.93
